createdAt,value
2023-03-29T00:00:39.185Z,4.05
2023-03-29T00:03:06.940Z,3.96
2023-03-29T00:05:35.197Z,3.85
2023-03-29T00:08:04.395Z,3.84
2023-03-29T00:10:34.588Z,3.88
2023-03-29T00:13:03.121Z,3.78
2023-03-29T00:15:30.814Z,3.64
2023-03-29T00:17:58.422Z,3.82
2023-03-29T00:20:26.091Z,3.66
2023-03-29T00:22:53.591Z,3.57
2023-03-29T00:25:21.404Z,3.52
2023-03-29T00:27:49.027Z,3.49
2023-03-29T00:30:17.538Z,3.50
2023-03-29T00:32:46.103Z,3.77
2023-03-29T00:35:13.655Z,3.60
2023-03-29T00:37:41.417Z,3.63
2023-03-29T00:40:11.744Z,3.51
2023-03-29T00:42:39.256Z,3.47
2023-03-29T00:45:25.228Z,3.56
2023-03-29T00:48:02.264Z,3.34
2023-03-29T00:50:31.508Z,3.42
2023-03-29T00:53:06.828Z,3.49
2023-03-29T00:56:01.709Z,3.50
2023-03-29T00:58:41.904Z,3.52
2023-03-29T01:01:19.648Z,3.52
2023-03-29T01:03:58.415Z,3.43
2023-03-29T01:06:29.656Z,3.51
2023-03-29T01:09:01.703Z,3.42
2023-03-29T01:11:36.389Z,3.59
2023-03-29T01:14:19.465Z,3.56
2023-03-29T01:16:47.777Z,3.62
2023-03-29T01:19:21.524Z,3.24
2023-03-29T01:22:03.720Z,3.30
2023-03-29T01:24:55.719Z,3.15
2023-03-29T01:28:04.111Z,3.26
2023-03-29T01:30:44.099Z,3.44
2023-03-29T01:33:23.596Z,3.34
2023-03-29T01:36:16.573Z,3.23
2023-03-29T01:38:54.505Z,3.02
2023-03-29T01:41:23.633Z,3.01
2023-03-29T01:43:57.246Z,3.01
2023-03-29T01:46:41.888Z,3.06
2023-03-29T01:49:27.518Z,2.95
2023-03-29T01:52:27.745Z,3.14
2023-03-29T01:55:08.214Z,3.15
2023-03-29T01:57:40.078Z,3.22
2023-03-29T02:00:11.452Z,3.14
2023-03-29T02:02:44.025Z,3.13
2023-03-29T02:05:17.740Z,3.15
2023-03-29T02:07:47.571Z,2.95
2023-03-29T02:10:16.833Z,2.72
2023-03-29T02:12:44.384Z,2.64
2023-03-29T02:15:18.859Z,2.70
2023-03-29T02:17:48.156Z,2.58
2023-03-29T02:20:24.191Z,2.71
2023-03-29T02:23:18.685Z,2.68
2023-03-29T02:25:47.252Z,2.62
2023-03-29T02:28:15.387Z,2.61
2023-03-29T02:30:59.791Z,2.86
2023-03-29T02:33:35.011Z,2.79
2023-03-29T02:36:18.502Z,2.98
2023-03-29T02:38:46.411Z,3.06
2023-03-29T02:41:16.566Z,3.11
2023-03-29T02:43:46.874Z,2.87
2023-03-29T02:46:16.567Z,2.73
2023-03-29T02:48:47.164Z,2.96
2023-03-29T02:51:24.357Z,2.92
2023-03-29T02:54:05.003Z,2.70
2023-03-29T02:56:56.825Z,2.78
2023-03-29T02:59:24.442Z,2.65
2023-03-29T03:01:52.953Z,2.35
2023-03-29T03:04:21.090Z,2.60
2023-03-29T03:06:51.286Z,2.65
2023-03-29T03:09:19.773Z,2.87
2023-03-29T03:11:48.287Z,2.72
2023-03-29T03:14:16.761Z,2.69
2023-03-29T03:16:44.624Z,2.53
2023-03-29T03:19:12.273Z,2.71
2023-03-29T03:21:39.797Z,2.64
2023-03-29T03:24:07.755Z,2.59
2023-03-29T03:26:36.073Z,2.54
2023-03-29T03:29:06.208Z,2.84
2023-03-29T03:31:56.971Z,2.78
2023-03-29T03:34:43.639Z,2.68
2023-03-29T03:37:15.492Z,2.78
2023-03-29T03:39:43.506Z,2.56
2023-03-29T03:42:11.284Z,2.71
2023-03-29T03:44:44.634Z,2.67
2023-03-29T03:47:28.272Z,2.38
2023-03-29T03:49:58.552Z,2.58
2023-03-29T03:52:27.671Z,2.54
2023-03-29T03:54:55.170Z,2.27
2023-03-29T03:57:47.973Z,2.19
2023-03-29T04:00:19.430Z,2.23
2023-03-29T04:02:56.901Z,2.15
2023-03-29T04:05:25.460Z,2.24
2023-03-29T04:07:56.614Z,2.30
2023-03-29T04:10:43.853Z,2.10
2023-03-29T04:13:15.873Z,2.13
2023-03-29T04:16:15.667Z,2.05
2023-03-29T04:18:44.056Z,2.15
2023-03-29T04:21:11.802Z,2.18
2023-03-29T04:23:39.273Z,2.23
2023-03-29T04:26:07.771Z,2.17
2023-03-29T04:28:57.756Z,2.03
2023-03-29T04:31:37.408Z,2.16
2023-03-29T04:34:31.329Z,2.14
2023-03-29T04:36:58.928Z,2.10
2023-03-29T04:39:33.828Z,2.05
2023-03-29T04:42:05.266Z,2.10
2023-03-29T04:44:34.192Z,2.12
2023-03-29T04:47:04.854Z,2.22
2023-03-29T04:49:52.572Z,2.24
2023-03-29T04:52:42.022Z,2.31
2023-03-29T04:55:10.687Z,2.33
2023-03-29T04:57:53.478Z,2.38
2023-03-29T05:00:27.680Z,2.43
2023-03-29T05:03:14.705Z,2.66
2023-03-29T05:06:06.946Z,2.86
2023-03-29T05:08:40.322Z,2.97
2023-03-29T05:11:19.859Z,2.96
2023-03-29T05:13:47.966Z,3.13
2023-03-29T05:16:16.012Z,3.24
2023-03-29T05:18:44.598Z,3.06
2023-03-29T05:21:12.071Z,3.33
2023-03-29T05:23:43.064Z,3.30
2023-03-29T05:26:30.985Z,3.26
2023-03-29T05:28:58.623Z,3.43
2023-03-29T05:31:26.705Z,3.57
2023-03-29T05:33:55.653Z,3.55
2023-03-29T05:36:23.455Z,3.45
2023-03-29T05:38:51.959Z,3.72
2023-03-29T05:41:22.788Z,3.66
2023-03-29T05:43:50.637Z,3.78
2023-03-29T05:46:18.983Z,3.88
2023-03-29T05:48:52.168Z,4.09
2023-03-29T05:51:24.437Z,4.18
2023-03-29T05:53:54.404Z,4.29
2023-03-29T05:56:22.562Z,4.65
2023-03-29T05:58:51.410Z,4.76
2023-03-29T06:01:20.562Z,4.89
2023-03-29T06:04:03.551Z,5.02
2023-03-29T06:06:39.515Z,4.95
2023-03-29T06:09:07.458Z,5.03
2023-03-29T06:11:37.805Z,5.18
2023-03-29T06:14:24.942Z,5.03
2023-03-29T06:17:02.802Z,5.07
2023-03-29T06:19:31.940Z,5.19
2023-03-29T06:22:02.200Z,5.23
2023-03-29T06:24:36.540Z,5.28
2023-03-29T06:27:11.245Z,5.47
2023-03-29T06:29:38.707Z,5.72
2023-03-29T06:32:09.288Z,5.66
2023-03-29T06:34:48.257Z,5.75
2023-03-29T06:37:40.342Z,5.77
2023-03-29T06:40:34.427Z,5.88
2023-03-29T06:43:01.889Z,5.80
2023-03-29T06:48:07.993Z,5.83
2023-03-29T06:50:37.034Z,5.74
2023-03-29T06:53:26.335Z,5.63
2023-03-29T06:55:59.820Z,5.57
2023-03-29T06:58:45.280Z,5.35
2023-03-29T07:01:37.503Z,5.55
2023-03-29T07:04:21.037Z,5.85
2023-03-29T07:07:20.517Z,6.05
2023-03-29T07:09:55.663Z,6.29
2023-03-29T07:13:00.763Z,6.39
2023-03-29T07:15:30.020Z,6.46
2023-03-29T07:18:10.332Z,6.62
2023-03-29T07:20:42.605Z,6.70
2023-03-29T07:23:10.637Z,6.91
2023-03-29T07:25:39.425Z,6.98
2023-03-29T07:28:07.539Z,7.22
2023-03-29T07:30:35.269Z,7.18
2023-03-29T07:33:14.581Z,7.09
2023-03-29T07:35:55.379Z,7.23
2023-03-29T07:38:23.114Z,7.36
2023-03-29T07:40:59.967Z,7.39
2023-03-29T07:43:48.122Z,7.64
2023-03-29T07:46:19.700Z,7.53
2023-03-29T07:48:47.605Z,7.43
2023-03-29T07:51:16.723Z,7.42
2023-03-29T07:54:00.285Z,7.37
2023-03-29T07:56:42.268Z,7.69
2023-03-29T07:59:23.382Z,7.87
2023-03-29T08:02:13.160Z,7.95
2023-03-29T08:04:44.942Z,7.84
2023-03-29T08:07:37.746Z,7.92
2023-03-29T08:10:26.753Z,8.02
2023-03-29T08:13:29.426Z,8.18
2023-03-29T08:16:15.554Z,8.25
2023-03-29T08:18:51.122Z,8.56
2023-03-29T08:21:20.507Z,8.63
2023-03-29T08:23:50.210Z,8.70
2023-03-29T08:26:25.956Z,8.97
2023-03-29T08:28:54.218Z,8.99
2023-03-29T08:31:24.137Z,8.95
2023-03-29T08:33:53.232Z,8.97
2023-03-29T08:36:40.254Z,8.79
2023-03-29T08:39:19.674Z,8.91
2023-03-29T08:42:38.755Z,9.21
2023-03-29T08:45:31.572Z,9.13
2023-03-29T08:48:28.642Z,8.97
2023-03-29T08:51:11.284Z,9.01
2023-03-29T08:53:46.069Z,9.15
2023-03-29T08:56:26.953Z,9.20
2023-03-29T08:58:57.091Z,9.27
2023-03-29T09:01:34.992Z,9.31
2023-03-29T09:04:18.948Z,9.63
2023-03-29T09:07:11.180Z,9.41
2023-03-29T09:09:43.996Z,9.30
2023-03-29T09:13:14.632Z,9.78
2023-03-29T09:16:08.549Z,9.57
2023-03-29T09:19:18.861Z,9.79
2023-03-29T09:21:51.694Z,9.86
2023-03-29T09:24:47.489Z,9.68
2023-03-29T09:27:28.065Z,9.82
2023-03-29T09:30:17.230Z,9.91
2023-03-29T09:33:29.917Z,9.74
2023-03-29T09:36:54.393Z,9.74
2023-03-29T09:39:23.442Z,9.82
2023-03-29T09:42:09.307Z,9.92
2023-03-29T09:44:54.577Z,9.70
2023-03-29T09:47:44.847Z,9.88
2023-03-29T09:50:30.848Z,10.17
2023-03-29T09:53:01.560Z,10.40
2023-03-29T09:55:36.494Z,10.10
2023-03-29T09:58:18.839Z,10.32
2023-03-29T10:00:58.067Z,10.49
2023-03-29T10:03:29.549Z,10.43
2023-03-29T10:06:08.625Z,10.50
2023-03-29T10:08:42.381Z,10.69
2023-03-29T10:11:31.952Z,10.89
2023-03-29T10:14:13.329Z,10.97
2023-03-29T10:16:46.348Z,10.85
2023-03-29T10:19:24.329Z,10.85
2023-03-29T10:21:54.023Z,10.99
2023-03-29T10:24:24.511Z,10.93
2023-03-29T10:26:59.240Z,11.06
2023-03-29T10:29:27.943Z,11.23
2023-03-29T10:31:58.415Z,11.44
2023-03-29T10:34:28.136Z,11.48
2023-03-29T10:37:01.181Z,11.68
2023-03-29T10:39:33.929Z,11.72
2023-03-29T10:42:05.534Z,11.55
2023-03-29T10:44:36.611Z,11.64
2023-03-29T10:47:17.620Z,11.20
2023-03-29T10:49:58.711Z,11.81
2023-03-29T10:52:26.651Z,11.66
2023-03-29T10:54:56.811Z,11.24
2023-03-29T10:57:49.775Z,11.07
2023-03-29T11:00:51.120Z,11.06
2023-03-29T11:03:56.307Z,11.49
2023-03-29T11:06:37.205Z,11.41
2023-03-29T11:09:28.309Z,11.59
2023-03-29T11:12:49.671Z,11.58
2023-03-29T11:15:36.498Z,11.52
2023-03-29T11:18:37.118Z,11.68
2023-03-29T11:21:19.381Z,11.94
2023-03-29T11:24:05.134Z,12.42
2023-03-29T11:27:45.664Z,12.50
2023-03-29T11:30:21.864Z,12.38
2023-03-29T11:33:22.325Z,12.73
2023-03-29T11:36:26.733Z,12.56
2023-03-29T11:39:04.219Z,12.76
2023-03-29T11:41:40.405Z,12.71
2023-03-29T11:44:30.450Z,12.66
2023-03-29T11:47:07.284Z,12.28
2023-03-29T11:50:00.101Z,12.26
2023-03-29T11:52:59.253Z,12.49
2023-03-29T11:55:36.037Z,12.75
2023-03-29T11:58:15.771Z,12.94
2023-03-29T12:04:01.688Z,13.53
2023-03-29T12:06:37.842Z,13.55
2023-03-29T12:09:39.687Z,13.39
2023-03-29T12:12:13.139Z,13.16
2023-03-29T12:15:00.786Z,13.17
2023-03-29T12:17:37.594Z,13.63
2023-03-29T12:20:18.777Z,13.97
2023-03-29T12:22:51.087Z,14.06
2023-03-29T12:25:30.426Z,14.42
2023-03-29T12:28:19.274Z,14.34
2023-03-29T12:30:58.375Z,14.28
2023-03-29T12:33:31.906Z,14.29
2023-03-29T12:37:11.597Z,14.08
2023-03-29T12:40:25.217Z,13.82
2023-03-29T12:43:32.202Z,14.30
2023-03-29T12:46:18.253Z,14.67
2023-03-29T12:48:51.493Z,14.93
2023-03-29T12:51:31.656Z,14.87
2023-03-29T12:54:29.143Z,15.49
2023-03-29T13:00:27.927Z,15.48
2023-03-29T13:03:44.921Z,15.38
2023-03-29T13:06:13.509Z,15.74
2023-03-29T13:08:45.670Z,15.71
2023-03-29T13:11:35.532Z,15.89
2023-03-29T13:14:13.217Z,16.12
2023-03-29T13:16:42.037Z,16.09
2023-03-29T13:19:12.402Z,16.71
2023-03-29T13:22:18.249Z,17.42
2023-03-29T13:25:21.725Z,17.37
2023-03-29T13:28:23.260Z,17.55
2023-03-29T13:30:59.708Z,16.65
2023-03-29T13:34:17.205Z,16.36
2023-03-29T13:37:13.048Z,16.50
2023-03-29T13:39:53.612Z,16.53
2023-03-29T13:42:59.801Z,16.78
2023-03-29T13:45:33.016Z,17.11
2023-03-29T13:48:25.059Z,16.95
2023-03-29T13:51:07.958Z,17.48
2023-03-29T13:54:19.024Z,17.72
2023-03-29T13:57:14.572Z,17.82
2023-03-29T14:00:02.295Z,17.59
2023-03-29T14:02:50.377Z,17.56
2023-03-29T14:05:32.234Z,17.19
2023-03-29T14:08:09.834Z,17.25
2023-03-29T14:10:44.025Z,17.38
2023-03-29T14:13:18.792Z,17.93
2023-03-29T14:15:52.388Z,18.50
2023-03-29T14:18:23.966Z,18.31
2023-03-29T14:20:55.140Z,17.64
2023-03-29T14:23:30.609Z,18.13
2023-03-29T14:26:17.036Z,18.06
2023-03-29T14:28:54.002Z,18.47
2023-03-29T14:31:34.378Z,18.25
2023-03-29T14:34:05.994Z,18.13
2023-03-29T14:36:34.722Z,17.95
2023-03-29T14:39:11.550Z,17.53
2023-03-29T14:41:40.174Z,17.83
2023-03-29T14:44:08.993Z,18.12
2023-03-29T14:46:36.926Z,17.70
2023-03-29T14:49:06.261Z,17.43
2023-03-29T14:51:34.419Z,17.60
2023-03-29T14:54:04.687Z,18.03
2023-03-29T14:56:33.596Z,18.16
2023-03-29T14:59:03.970Z,18.85
2023-03-29T15:01:32.344Z,19.72
2023-03-29T15:04:08.033Z,19.06
2023-03-29T15:06:42.510Z,18.82
2023-03-29T15:09:29.242Z,18.46
2023-03-29T15:12:17.762Z,18.03
2023-03-29T15:14:47.458Z,18.01
2023-03-29T15:17:50.249Z,18.48
2023-03-29T15:20:39.098Z,17.95
2023-03-29T15:23:23.458Z,18.22
2023-03-29T15:26:07.472Z,18.18
2023-03-29T15:28:48.914Z,17.46
2023-03-29T15:31:20.849Z,16.97
2023-03-29T15:33:48.447Z,16.78
2023-03-29T15:36:16.663Z,16.69
2023-03-29T15:38:45.495Z,16.29
2023-03-29T15:41:15.462Z,15.95
2023-03-29T15:43:44.263Z,15.15
2023-03-29T15:46:16.635Z,14.54
2023-03-29T15:48:44.384Z,13.81
2023-03-29T15:51:13.054Z,13.44
2023-03-29T15:53:42.193Z,13.25
2023-03-29T15:56:15.801Z,12.92
2023-03-29T15:58:43.987Z,12.88
2023-03-29T16:01:37.305Z,13.25
2023-03-29T16:04:17.670Z,14.07
2023-03-29T16:06:48.882Z,14.13
2023-03-29T16:09:17.634Z,13.75
2023-03-29T16:11:46.490Z,13.36
2023-03-29T16:14:31.778Z,13.40
2023-03-29T16:17:02.902Z,12.99
2023-03-29T16:19:32.137Z,12.83
2023-03-29T16:22:02.354Z,12.48
2023-03-29T16:24:32.328Z,12.35
2023-03-29T16:27:03.283Z,12.01
2023-03-29T16:29:31.252Z,11.90
2023-03-29T16:31:59.283Z,11.64
2023-03-29T16:34:26.876Z,11.58
2023-03-29T16:36:54.471Z,11.55
2023-03-29T16:39:22.924Z,11.45
2023-03-29T16:41:51.318Z,11.26
2023-03-29T16:44:24.758Z,11.18
2023-03-29T16:46:57.805Z,11.21
2023-03-29T16:49:25.434Z,11.17
2023-03-29T16:51:52.918Z,10.92
2023-03-29T16:54:40.402Z,10.80
2023-03-29T16:57:10.370Z,10.79
2023-03-29T16:59:38.030Z,10.59
2023-03-29T17:02:05.493Z,10.54
2023-03-29T17:04:33.693Z,10.43
2023-03-29T17:07:01.634Z,10.26
2023-03-29T17:09:30.008Z,10.26
2023-03-29T17:11:57.568Z,10.36
2023-03-29T17:14:26.368Z,10.25
2023-03-29T17:16:54.706Z,10.13
2023-03-29T17:19:22.256Z,10.03
2023-03-29T17:21:49.743Z,10.14
2023-03-29T17:24:17.335Z,10.09
2023-03-29T17:26:45.982Z,9.72
2023-03-29T17:29:13.504Z,9.77
2023-03-29T17:31:47.712Z,9.55
2023-03-29T17:34:17.373Z,9.44
2023-03-29T17:36:46.469Z,9.50
2023-03-29T17:39:15.342Z,9.51
2023-03-29T17:41:45.466Z,9.43
2023-03-29T17:44:13.024Z,9.47
2023-03-29T17:46:40.749Z,9.53
2023-03-29T17:49:08.272Z,9.47
2023-03-29T17:51:36.288Z,9.23
2023-03-29T17:54:04.030Z,9.09
2023-03-29T17:56:32.962Z,9.07
2023-03-29T17:59:00.996Z,9.01
2023-03-29T18:01:28.556Z,8.90
2023-03-29T18:03:57.378Z,8.87
2023-03-29T18:06:31.212Z,8.83
2023-03-29T18:09:01.591Z,8.89
2023-03-29T18:11:29.516Z,8.77
2023-03-29T18:14:01.294Z,8.75
2023-03-29T18:16:29.674Z,8.75
2023-03-29T18:18:57.243Z,8.75
2023-03-29T18:21:26.150Z,8.66
2023-03-29T18:23:57.000Z,8.64
2023-03-29T18:26:26.700Z,8.67
2023-03-29T18:28:54.399Z,8.63
2023-03-29T18:31:22.031Z,8.71
2023-03-29T18:33:50.216Z,8.55
2023-03-29T18:36:17.735Z,8.38
2023-03-29T18:38:46.151Z,8.56
2023-03-29T18:41:14.830Z,8.22
2023-03-29T18:43:43.274Z,8.16
2023-03-29T18:46:10.875Z,8.09
2023-03-29T18:48:42.672Z,7.97
2023-03-29T18:51:14.986Z,7.76
2023-03-29T18:53:44.478Z,7.95
2023-03-29T18:56:15.248Z,8.06
2023-03-29T18:58:43.021Z,8.12
2023-03-29T19:01:11.288Z,7.97
2023-03-29T19:03:39.108Z,7.56
2023-03-29T19:06:08.233Z,6.96
2023-03-29T19:08:38.745Z,6.70
2023-03-29T19:11:09.931Z,6.86
2023-03-29T19:13:37.719Z,6.76
2023-03-29T19:16:06.390Z,7.05
2023-03-29T19:18:34.723Z,7.06
2023-03-29T19:21:03.551Z,7.00
2023-03-29T19:23:31.516Z,6.71
2023-03-29T19:26:02.571Z,6.67
2023-03-29T19:28:31.202Z,6.59
2023-03-29T19:31:01.083Z,6.67
2023-03-29T19:33:29.529Z,6.66
2023-03-29T19:35:57.088Z,6.56
2023-03-29T19:38:24.768Z,6.80
2023-03-29T19:40:54.246Z,6.62
2023-03-29T19:43:21.952Z,6.61
2023-03-29T19:45:53.675Z,6.72
2023-03-29T19:48:22.995Z,6.80
2023-03-29T19:50:52.028Z,6.88
2023-03-29T19:53:22.152Z,6.77
2023-03-29T19:55:54.970Z,6.82
2023-03-29T19:58:22.543Z,6.92
2023-03-29T20:00:53.605Z,7.07
2023-03-29T20:03:21.848Z,6.94
2023-03-29T20:05:49.571Z,6.67
2023-03-29T20:08:17.095Z,6.55
2023-03-29T20:10:44.593Z,6.58
2023-03-29T20:13:12.026Z,6.65
2023-03-29T20:15:39.845Z,6.47
2023-03-29T20:18:08.052Z,6.33
2023-03-29T20:20:38.821Z,6.19
2023-03-29T20:23:08.137Z,6.12
2023-03-29T20:25:40.848Z,6.13
2023-03-29T20:28:08.588Z,6.05
2023-03-29T20:30:37.736Z,6.12
2023-03-29T20:33:05.720Z,6.19
2023-03-29T20:35:34.508Z,6.22
2023-03-29T20:38:02.612Z,6.22
2023-03-29T20:40:34.324Z,6.19
2023-03-29T20:43:02.132Z,6.25
2023-03-29T20:45:33.211Z,6.29
2023-03-29T20:48:08.416Z,6.29
2023-03-29T20:50:40.291Z,6.40
2023-03-29T20:53:08.861Z,6.45
2023-03-29T20:55:39.435Z,6.37
2023-03-29T20:58:07.909Z,6.28
2023-03-29T21:00:35.795Z,6.22
2023-03-29T21:03:04.030Z,6.44
2023-03-29T21:05:33.774Z,6.38
2023-03-29T21:08:02.826Z,6.35
2023-03-29T21:10:30.952Z,6.44
2023-03-29T21:13:00.317Z,6.62
2023-03-29T21:15:30.805Z,6.76
2023-03-29T21:17:58.929Z,6.58
2023-03-29T21:20:27.595Z,6.33
2023-03-29T21:22:55.174Z,6.32
2023-03-29T21:25:22.875Z,6.18
2023-03-29T21:27:50.385Z,5.91
2023-03-29T21:30:17.891Z,5.67
2023-03-29T21:32:45.392Z,5.62
2023-03-29T21:35:13.189Z,5.52
2023-03-29T21:37:40.690Z,5.55
2023-03-29T21:40:10.699Z,5.56
2023-03-29T21:42:38.641Z,5.57
2023-03-29T21:45:06.898Z,5.43
2023-03-29T21:47:34.408Z,5.65
2023-03-29T21:50:01.987Z,5.47
2023-03-29T21:52:29.628Z,5.49
2023-03-29T21:54:57.167Z,5.51
2023-03-29T21:57:24.713Z,5.56
2023-03-29T21:59:52.184Z,5.52
2023-03-29T22:02:19.695Z,5.56
2023-03-29T22:04:47.281Z,5.47
2023-03-29T22:07:14.834Z,5.60
2023-03-29T22:09:42.664Z,6.08
2023-03-29T22:12:10.737Z,5.37
2023-03-29T22:14:38.262Z,5.07
2023-03-29T22:17:06.991Z,4.75
2023-03-29T22:19:39.745Z,4.76
2023-03-29T22:22:13.996Z,4.69
2023-03-29T22:24:42.510Z,4.88
2023-03-29T22:27:11.759Z,4.81
2023-03-29T22:29:39.494Z,4.70
2023-03-29T22:32:07.023Z,4.59
2023-03-29T22:34:34.953Z,4.55
2023-03-29T22:37:02.423Z,4.73
2023-03-29T22:39:29.958Z,4.94
2023-03-29T22:41:57.555Z,4.88
2023-03-29T22:44:25.026Z,4.84
2023-03-29T22:46:52.626Z,4.77
2023-03-29T22:49:20.358Z,4.92
2023-03-29T22:51:47.827Z,4.82
2023-03-29T22:54:15.311Z,4.77
2023-03-29T22:56:42.848Z,5.28
2023-03-29T22:59:10.563Z,5.23
2023-03-29T23:01:38.169Z,5.06
2023-03-29T23:04:06.337Z,4.91
2023-03-29T23:06:33.983Z,4.85
2023-03-29T23:09:01.697Z,4.81
2023-03-29T23:11:29.187Z,4.88
2023-03-29T23:13:56.641Z,4.87
2023-03-29T23:16:24.548Z,4.82
2023-03-29T23:18:52.085Z,4.81
2023-03-29T23:21:19.529Z,4.70
2023-03-29T23:23:47.181Z,4.80
2023-03-29T23:26:14.840Z,4.79
2023-03-29T23:28:42.503Z,4.81
2023-03-29T23:31:18.534Z,4.81
2023-03-29T23:33:49.488Z,4.74
2023-03-29T23:36:19.528Z,4.80
2023-03-29T23:38:48.779Z,4.76
2023-03-29T23:41:17.772Z,4.72
2023-03-29T23:43:47.453Z,4.73
2023-03-29T23:46:18.980Z,4.74
2023-03-29T23:48:51.464Z,4.80
2023-03-29T23:51:23.075Z,5.20
2023-03-29T23:53:51.444Z,5.06
2023-03-29T23:56:18.923Z,4.76
2023-03-29T23:58:46.744Z,4.61
